sensor_id;sensor_type;location;lat;lon;timestamp;temperature;humidity
32809;DHT22;19159;48.178;16.386;2024-02-14T00:02:16;10.90;79.20
32809;DHT22;19159;48.178;16.386;2024-02-14T00:04:42;10.90;79.20
32809;DHT22;19159;48.178;16.386;2024-02-14T00:07:07;10.90;79.30
32809;DHT22;19159;48.178;16.386;2024-02-14T00:09:33;10.90;79.30
32809;DHT22;19159;48.178;16.386;2024-02-14T00:11:59;10.90;79.40
32809;DHT22;19159;48.178;16.386;2024-02-14T00:14:24;10.90;79.60
32809;DHT22;19159;48.178;16.386;2024-02-14T00:16:50;10.90;79.70
32809;DHT22;19159;48.178;16.386;2024-02-14T00:19:16;10.90;79.80
32809;DHT22;19159;48.178;16.386;2024-02-14T00:21:42;10.90;79.90
32809;DHT22;19159;48.178;16.386;2024-02-14T00:24:08;11.00;80.10
32809;DHT22;19159;48.178;16.386;2024-02-14T00:26:34;11.00;80.10
32809;DHT22;19159;48.178;16.386;2024-02-14T00:29:00;11.10;80.20
32809;DHT22;19159;48.178;16.386;2024-02-14T00:31:25;11.10;80.20
32809;DHT22;19159;48.178;16.386;2024-02-14T00:33:51;11.10;80.20
32809;DHT22;19159;48.178;16.386;2024-02-14T00:36:16;11.10;80.20
32809;DHT22;19159;48.178;16.386;2024-02-14T00:38:43;11.10;80.70
32809;DHT22;19159;48.178;16.386;2024-02-14T00:41:11;11.10;79.80
32809;DHT22;19159;48.178;16.386;2024-02-14T00:43:36;11.20;79.80
32809;DHT22;19159;48.178;16.386;2024-02-14T00:46:02;11.10;79.80
32809;DHT22;19159;48.178;16.386;2024-02-14T00:48:28;11.10;79.80
32809;DHT22;19159;48.178;16.386;2024-02-14T00:50:53;11.10;79.90
32809;DHT22;19159;48.178;16.386;2024-02-14T00:53:20;11.20;80.00
32809;DHT22;19159;48.178;16.386;2024-02-14T00:55:46;11.20;80.20
32809;DHT22;19159;48.178;16.386;2024-02-14T00:58:12;11.20;80.20
32809;DHT22;19159;48.178;16.386;2024-02-14T01:00:38;11.20;80.20
32809;DHT22;19159;48.178;16.386;2024-02-14T01:03:03;11.20;80.00
32809;DHT22;19159;48.178;16.386;2024-02-14T01:05:29;11.10;80.10
32809;DHT22;19159;48.178;16.386;2024-02-14T01:07:55;11.10;80.00
32809;DHT22;19159;48.178;16.386;2024-02-14T01:10:21;11.10;80.10
32809;DHT22;19159;48.178;16.386;2024-02-14T01:12:46;11.10;80.10
32809;DHT22;19159;48.178;16.386;2024-02-14T01:15:12;11.10;79.90
32809;DHT22;19159;48.178;16.386;2024-02-14T01:17:38;11.10;80.10
32809;DHT22;19159;48.178;16.386;2024-02-14T01:20:05;11.10;80.00
32809;DHT22;19159;48.178;16.386;2024-02-14T01:22:34;11.10;80.20
32809;DHT22;19159;48.178;16.386;2024-02-14T01:25:00;11.10;80.20
32809;DHT22;19159;48.178;16.386;2024-02-14T01:27:25;11.10;80.20
32809;DHT22;19159;48.178;16.386;2024-02-14T01:29:51;11.10;80.10
32809;DHT22;19159;48.178;16.386;2024-02-14T01:32:17;11.10;80.30
32809;DHT22;19159;48.178;16.386;2024-02-14T01:34:43;11.00;80.20
32809;DHT22;19159;48.178;16.386;2024-02-14T01:37:09;11.00;80.40
32809;DHT22;19159;48.178;16.386;2024-02-14T01:39:37;11.00;80.30
32809;DHT22;19159;48.178;16.386;2024-02-14T01:42:03;11.00;80.10
32809;DHT22;19159;48.178;16.386;2024-02-14T01:44:33;11.00;80.20
32809;DHT22;19159;48.178;16.386;2024-02-14T01:47:00;10.90;80.20
32809;DHT22;19159;48.178;16.386;2024-02-14T01:49:26;10.90;80.30
32809;DHT22;19159;48.178;16.386;2024-02-14T01:51:55;10.90;80.60
32809;DHT22;19159;48.178;16.386;2024-02-14T01:54:21;10.80;80.70
32809;DHT22;19159;48.178;16.386;2024-02-14T01:56:47;10.70;80.70
32809;DHT22;19159;48.178;16.386;2024-02-14T01:59:13;10.70;81.00
32809;DHT22;19159;48.178;16.386;2024-02-14T02:01:41;10.60;81.10
32809;DHT22;19159;48.178;16.386;2024-02-14T02:04:08;10.60;81.30
32809;DHT22;19159;48.178;16.386;2024-02-14T02:09:00;10.60;81.40
32809;DHT22;19159;48.178;16.386;2024-02-14T02:11:25;10.60;81.50
32809;DHT22;19159;48.178;16.386;2024-02-14T02:13:52;10.60;81.70
32809;DHT22;19159;48.178;16.386;2024-02-14T02:16:17;10.50;81.70
32809;DHT22;19159;48.178;16.386;2024-02-14T02:18:45;10.50;81.80
32809;DHT22;19159;48.178;16.386;2024-02-14T02:21:11;10.50;81.80
32809;DHT22;19159;48.178;16.386;2024-02-14T02:23:38;10.50;81.90
32809;DHT22;19159;48.178;16.386;2024-02-14T02:26:06;10.50;82.20
32809;DHT22;19159;48.178;16.386;2024-02-14T02:28:31;10.40;82.30
32809;DHT22;19159;48.178;16.386;2024-02-14T02:30:57;10.40;82.50
32809;DHT22;19159;48.178;16.386;2024-02-14T02:33:23;10.30;82.60
32809;DHT22;19159;48.178;16.386;2024-02-14T02:35:50;10.30;82.90
32809;DHT22;19159;48.178;16.386;2024-02-14T02:38:16;10.20;83.10
32809;DHT22;19159;48.178;16.386;2024-02-14T02:40:43;10.10;83.40
32809;DHT22;19159;48.178;16.386;2024-02-14T02:43:09;10.10;83.70
32809;DHT22;19159;48.178;16.386;2024-02-14T02:45:36;10.00;83.90
32809;DHT22;19159;48.178;16.386;2024-02-14T02:48:01;9.90;84.20
32809;DHT22;19159;48.178;16.386;2024-02-14T02:50:28;9.90;84.40
32809;DHT22;19159;48.178;16.386;2024-02-14T02:52:55;9.90;84.50
32809;DHT22;19159;48.178;16.386;2024-02-14T02:55:22;9.80;84.90
32809;DHT22;19159;48.178;16.386;2024-02-14T02:57:48;9.70;85.00
32809;DHT22;19159;48.178;16.386;2024-02-14T03:00:14;9.70;85.10
32809;DHT22;19159;48.178;16.386;2024-02-14T03:02:41;9.70;85.40
32809;DHT22;19159;48.178;16.386;2024-02-14T03:05:10;9.70;85.30
32809;DHT22;19159;48.178;16.386;2024-02-14T03:07:39;9.70;85.30
32809;DHT22;19159;48.178;16.386;2024-02-14T03:10:05;9.70;85.50
32809;DHT22;19159;48.178;16.386;2024-02-14T03:12:30;9.60;85.50
32809;DHT22;19159;48.178;16.386;2024-02-14T03:14:58;9.60;85.80
32809;DHT22;19159;48.178;16.386;2024-02-14T03:17:24;9.50;86.00
32809;DHT22;19159;48.178;16.386;2024-02-14T03:19:49;9.50;86.20
32809;DHT22;19159;48.178;16.386;2024-02-14T03:22:17;9.50;86.30
32809;DHT22;19159;48.178;16.386;2024-02-14T03:24:45;9.50;86.40
32809;DHT22;19159;48.178;16.386;2024-02-14T03:27:12;9.50;86.50
32809;DHT22;19159;48.178;16.386;2024-02-14T03:29:38;9.50;86.50
32809;DHT22;19159;48.178;16.386;2024-02-14T03:32:05;9.50;86.70
32809;DHT22;19159;48.178;16.386;2024-02-14T03:34:31;9.50;86.80
32809;DHT22;19159;48.178;16.386;2024-02-14T03:36:59;9.50;87.00
32809;DHT22;19159;48.178;16.386;2024-02-14T03:39:25;9.40;87.10
32809;DHT22;19159;48.178;16.386;2024-02-14T03:41:51;9.40;87.20
32809;DHT22;19159;48.178;16.386;2024-02-14T03:44:18;9.40;87.40
32809;DHT22;19159;48.178;16.386;2024-02-14T03:46:43;9.40;87.40
32809;DHT22;19159;48.178;16.386;2024-02-14T03:49:09;9.50;87.30
32809;DHT22;19159;48.178;16.386;2024-02-14T03:51:35;9.50;87.20
32809;DHT22;19159;48.178;16.386;2024-02-14T03:54:00;9.50;87.20
32809;DHT22;19159;48.178;16.386;2024-02-14T03:56:26;9.50;87.40
32809;DHT22;19159;48.178;16.386;2024-02-14T03:58:52;9.40;87.60
32809;DHT22;19159;48.178;16.386;2024-02-14T04:01:17;9.30;87.90
32809;DHT22;19159;48.178;16.386;2024-02-14T04:03:46;9.30;88.30
32809;DHT22;19159;48.178;16.386;2024-02-14T04:06:12;9.30;88.50
32809;DHT22;19159;48.178;16.386;2024-02-14T04:08:38;9.30;88.50
32809;DHT22;19159;48.178;16.386;2024-02-14T04:11:04;9.40;88.40
32809;DHT22;19159;48.178;16.386;2024-02-14T04:13:30;9.40;88.40
32809;DHT22;19159;48.178;16.386;2024-02-14T04:15:56;9.40;88.30
32809;DHT22;19159;48.178;16.386;2024-02-14T04:18:21;9.40;88.40
32809;DHT22;19159;48.178;16.386;2024-02-14T04:20:47;9.30;88.50
32809;DHT22;19159;48.178;16.386;2024-02-14T04:23:14;9.30;88.60
32809;DHT22;19159;48.178;16.386;2024-02-14T04:25:39;9.30;88.90
32809;DHT22;19159;48.178;16.386;2024-02-14T04:28:05;9.20;89.10
32809;DHT22;19159;48.178;16.386;2024-02-14T04:30:31;9.20;89.20
32809;DHT22;19159;48.178;16.386;2024-02-14T04:32:57;9.30;89.20
32809;DHT22;19159;48.178;16.386;2024-02-14T04:35:22;9.30;89.30
32809;DHT22;19159;48.178;16.386;2024-02-14T04:37:48;9.20;89.40
32809;DHT22;19159;48.178;16.386;2024-02-14T04:40:14;9.20;89.60
32809;DHT22;19159;48.178;16.386;2024-02-14T04:42:41;9.10;89.70
32809;DHT22;19159;48.178;16.386;2024-02-14T04:45:07;9.10;89.90
32809;DHT22;19159;48.178;16.386;2024-02-14T04:47:33;9.20;90.00
32809;DHT22;19159;48.178;16.386;2024-02-14T04:49:59;9.20;90.00
32809;DHT22;19159;48.178;16.386;2024-02-14T04:52:26;9.20;90.00
32809;DHT22;19159;48.178;16.386;2024-02-14T04:54:52;9.20;90.00
32809;DHT22;19159;48.178;16.386;2024-02-14T04:57:18;9.20;90.00
32809;DHT22;19159;48.178;16.386;2024-02-14T04:59:45;9.20;90.00
32809;DHT22;19159;48.178;16.386;2024-02-14T05:02:11;9.20;90.00
32809;DHT22;19159;48.178;16.386;2024-02-14T05:04:37;9.20;90.00
32809;DHT22;19159;48.178;16.386;2024-02-14T05:07:05;9.20;90.10
32809;DHT22;19159;48.178;16.386;2024-02-14T05:09:30;9.20;90.10
32809;DHT22;19159;48.178;16.386;2024-02-14T05:11:56;9.30;90.10
32809;DHT22;19159;48.178;16.386;2024-02-14T05:14:22;9.30;90.10
32809;DHT22;19159;48.178;16.386;2024-02-14T05:16:49;9.30;90.10
32809;DHT22;19159;48.178;16.386;2024-02-14T05:19:15;9.40;90.00
32809;DHT22;19159;48.178;16.386;2024-02-14T05:21:41;9.40;90.00
32809;DHT22;19159;48.178;16.386;2024-02-14T05:24:06;9.50;89.80
32809;DHT22;19159;48.178;16.386;2024-02-14T05:26:32;9.60;89.60
32809;DHT22;19159;48.178;16.386;2024-02-14T05:28:58;9.70;89.50
32809;DHT22;19159;48.178;16.386;2024-02-14T05:31:24;9.70;89.20
32809;DHT22;19159;48.178;16.386;2024-02-14T05:33:50;9.70;89.10
32809;DHT22;19159;48.178;16.386;2024-02-14T05:36:16;9.80;89.00
32809;DHT22;19159;48.178;16.386;2024-02-14T05:38:42;9.80;88.90
32809;DHT22;19159;48.178;16.386;2024-02-14T05:41:08;9.80;88.80
32809;DHT22;19159;48.178;16.386;2024-02-14T05:43:34;9.80;88.80
32809;DHT22;19159;48.178;16.386;2024-02-14T05:46:00;9.90;88.70
32809;DHT22;19159;48.178;16.386;2024-02-14T05:48:26;9.90;88.70
32809;DHT22;19159;48.178;16.386;2024-02-14T05:50:51;10.00;88.70
32809;DHT22;19159;48.178;16.386;2024-02-14T05:53:17;10.00;88.50
32809;DHT22;19159;48.178;16.386;2024-02-14T05:55:43;10.00;88.30
32809;DHT22;19159;48.178;16.386;2024-02-14T05:58:09;10.10;87.90
32809;DHT22;19159;48.178;16.386;2024-02-14T06:00:35;10.10;87.60
32809;DHT22;19159;48.178;16.386;2024-02-14T06:03:01;10.20;87.60
32809;DHT22;19159;48.178;16.386;2024-02-14T06:05:27;10.00;87.90
32809;DHT22;19159;48.178;16.386;2024-02-14T06:07:53;10.00;88.10
32809;DHT22;19159;48.178;16.386;2024-02-14T06:10:18;10.00;88.20
32809;DHT22;19159;48.178;16.386;2024-02-14T06:12:44;9.90;87.90
32809;DHT22;19159;48.178;16.386;2024-02-14T06:15:11;9.90;87.90
32809;DHT22;19159;48.178;16.386;2024-02-14T06:17:37;9.90;87.90
32809;DHT22;19159;48.178;16.386;2024-02-14T06:20:03;9.80;88.00
32809;DHT22;19159;48.178;16.386;2024-02-14T06:22:32;9.90;88.00
32809;DHT22;19159;48.178;16.386;2024-02-14T06:25:01;9.90;88.00
32809;DHT22;19159;48.178;16.386;2024-02-14T06:27:30;9.80;88.00
32809;DHT22;19159;48.178;16.386;2024-02-14T06:29:56;9.90;88.10
32809;DHT22;19159;48.178;16.386;2024-02-14T06:32:22;9.90;87.60
32809;DHT22;19159;48.178;16.386;2024-02-14T06:34:48;9.90;87.60
32809;DHT22;19159;48.178;16.386;2024-02-14T06:37:13;10.00;87.90
32809;DHT22;19159;48.178;16.386;2024-02-14T06:39:39;10.00;88.00
32809;DHT22;19159;48.178;16.386;2024-02-14T06:42:04;10.10;88.00
32809;DHT22;19159;48.178;16.386;2024-02-14T06:44:30;10.20;87.70
32809;DHT22;19159;48.178;16.386;2024-02-14T06:46:56;10.30;87.60
32809;DHT22;19159;48.178;16.386;2024-02-14T06:49:21;10.30;87.30
32809;DHT22;19159;48.178;16.386;2024-02-14T06:51:47;10.30;87.10
32809;DHT22;19159;48.178;16.386;2024-02-14T06:54:12;10.30;87.00
32809;DHT22;19159;48.178;16.386;2024-02-14T06:56:38;10.40;87.10
32809;DHT22;19159;48.178;16.386;2024-02-14T06:59:04;10.40;87.00
32809;DHT22;19159;48.178;16.386;2024-02-14T07:01:30;10.50;87.00
32809;DHT22;19159;48.178;16.386;2024-02-14T07:03:56;10.50;86.80
32809;DHT22;19159;48.178;16.386;2024-02-14T07:06:22;10.50;86.80
32809;DHT22;19159;48.178;16.386;2024-02-14T07:08:48;10.50;86.80
32809;DHT22;19159;48.178;16.386;2024-02-14T07:11:14;10.50;86.70
32809;DHT22;19159;48.178;16.386;2024-02-14T07:13:41;10.50;86.60
32809;DHT22;19159;48.178;16.386;2024-02-14T07:16:06;10.50;86.40
32809;DHT22;19159;48.178;16.386;2024-02-14T07:18:33;10.60;86.60
32809;DHT22;19159;48.178;16.386;2024-02-14T07:20:59;10.70;86.60
32809;DHT22;19159;48.178;16.386;2024-02-14T07:23:25;10.80;86.50
32809;DHT22;19159;48.178;16.386;2024-02-14T07:25:51;10.90;86.20
32809;DHT22;19159;48.178;16.386;2024-02-14T07:28:17;11.00;86.10
32809;DHT22;19159;48.178;16.386;2024-02-14T07:30:43;11.10;85.70
32809;DHT22;19159;48.178;16.386;2024-02-14T07:33:09;11.30;85.50
32809;DHT22;19159;48.178;16.386;2024-02-14T07:35:36;11.30;85.30
32809;DHT22;19159;48.178;16.386;2024-02-14T07:38:02;11.40;85.20
32809;DHT22;19159;48.178;16.386;2024-02-14T07:40:28;11.50;85.10
32809;DHT22;19159;48.178;16.386;2024-02-14T07:42:56;11.60;84.80
32809;DHT22;19159;48.178;16.386;2024-02-14T07:45:22;11.70;84.40
32809;DHT22;19159;48.178;16.386;2024-02-14T07:47:49;11.80;84.10
32809;DHT22;19159;48.178;16.386;2024-02-14T07:50:15;11.90;83.90
32809;DHT22;19159;48.178;16.386;2024-02-14T07:52:45;12.00;83.80
32809;DHT22;19159;48.178;16.386;2024-02-14T07:55:11;12.30;84.10
32809;DHT22;19159;48.178;16.386;2024-02-14T07:57:41;12.50;82.90
32809;DHT22;19159;48.178;16.386;2024-02-14T08:00:08;12.60;82.00
32809;DHT22;19159;48.178;16.386;2024-02-14T08:02:34;12.60;81.70
32809;DHT22;19159;48.178;16.386;2024-02-14T08:05:00;12.60;81.10
32809;DHT22;19159;48.178;16.386;2024-02-14T08:07:26;12.60;80.90
32809;DHT22;19159;48.178;16.386;2024-02-14T08:09:52;12.60;80.80
32809;DHT22;19159;48.178;16.386;2024-02-14T08:12:18;12.60;80.70
32809;DHT22;19159;48.178;16.386;2024-02-14T08:14:44;12.70;80.80
32809;DHT22;19159;48.178;16.386;2024-02-14T08:17:10;12.70;79.60
32809;DHT22;19159;48.178;16.386;2024-02-14T08:19:36;12.70;80.10
32809;DHT22;19159;48.178;16.386;2024-02-14T08:22:01;12.80;80.00
32809;DHT22;19159;48.178;16.386;2024-02-14T08:24:28;12.90;80.20
32809;DHT22;19159;48.178;16.386;2024-02-14T08:26:54;13.00;80.00
32809;DHT22;19159;48.178;16.386;2024-02-14T08:29:20;13.00;79.10
32809;DHT22;19159;48.178;16.386;2024-02-14T08:31:46;13.00;79.20
32809;DHT22;19159;48.178;16.386;2024-02-14T08:34:13;13.10;78.90
32809;DHT22;19159;48.178;16.386;2024-02-14T08:36:39;13.10;78.70
32809;DHT22;19159;48.178;16.386;2024-02-14T08:39:07;13.30;78.30
32809;DHT22;19159;48.178;16.386;2024-02-14T08:41:33;13.40;77.60
32809;DHT22;19159;48.178;16.386;2024-02-14T08:43:59;13.50;77.20
32809;DHT22;19159;48.178;16.386;2024-02-14T08:46:24;13.70;77.00
32809;DHT22;19159;48.178;16.386;2024-02-14T08:48:51;13.80;76.30
32809;DHT22;19159;48.178;16.386;2024-02-14T08:51:17;14.00;76.10
32809;DHT22;19159;48.178;16.386;2024-02-14T08:53:45;14.30;74.20
32809;DHT22;19159;48.178;16.386;2024-02-14T08:56:11;14.80;74.70
32809;DHT22;19159;48.178;16.386;2024-02-14T08:58:37;15.60;75.40
32809;DHT22;19159;48.178;16.386;2024-02-14T09:01:03;16.60;74.00
32809;DHT22;19159;48.178;16.386;2024-02-14T09:03:29;17.40;70.80
32809;DHT22;19159;48.178;16.386;2024-02-14T09:05:57;18.30;69.60
32809;DHT22;19159;48.178;16.386;2024-02-14T09:08:23;19.00;67.50
32809;DHT22;19159;48.178;16.386;2024-02-14T09:10:50;19.90;66.80
32809;DHT22;19159;48.178;16.386;2024-02-14T09:13:15;20.60;63.40
32809;DHT22;19159;48.178;16.386;2024-02-14T09:15:43;21.30;62.40
32809;DHT22;19159;48.178;16.386;2024-02-14T09:18:09;22.20;59.50
32809;DHT22;19159;48.178;16.386;2024-02-14T09:20:34;22.90;58.50
32809;DHT22;19159;48.178;16.386;2024-02-14T09:23:00;23.80;57.30
32809;DHT22;19159;48.178;16.386;2024-02-14T09:25:26;24.20;55.30
32809;DHT22;19159;48.178;16.386;2024-02-14T09:27:51;24.40;54.20
32809;DHT22;19159;48.178;16.386;2024-02-14T09:30:18;24.60;53.80
32809;DHT22;19159;48.178;16.386;2024-02-14T09:32:45;25.30;53.10
32809;DHT22;19159;48.178;16.386;2024-02-14T09:35:10;25.90;52.30
32809;DHT22;19159;48.178;16.386;2024-02-14T09:37:36;26.60;52.10
32809;DHT22;19159;48.178;16.386;2024-02-14T09:40:06;27.50;51.20
32809;DHT22;19159;48.178;16.386;2024-02-14T09:42:44;28.20;49.20
32809;DHT22;19159;48.178;16.386;2024-02-14T09:45:11;28.50;47.20
32809;DHT22;19159;48.178;16.386;2024-02-14T09:47:37;29.20;47.50
32809;DHT22;19159;48.178;16.386;2024-02-14T09:50:06;29.80;45.30
32809;DHT22;19159;48.178;16.386;2024-02-14T09:52:35;30.10;44.90
32809;DHT22;19159;48.178;16.386;2024-02-14T09:55:02;30.50;44.00
32809;DHT22;19159;48.178;16.386;2024-02-14T09:57:30;30.70;42.70
32809;DHT22;19159;48.178;16.386;2024-02-14T09:59:59;31.00;43.00
32809;DHT22;19159;48.178;16.386;2024-02-14T10:02:25;31.70;42.20
32809;DHT22;19159;48.178;16.386;2024-02-14T10:04:51;32.40;41.50
32809;DHT22;19159;48.178;16.386;2024-02-14T10:07:16;32.90;40.60
32809;DHT22;19159;48.178;16.386;2024-02-14T10:09:43;33.70;40.50
32809;DHT22;19159;48.178;16.386;2024-02-14T10:12:09;34.50;39.70
32809;DHT22;19159;48.178;16.386;2024-02-14T10:14:35;34.90;38.70
32809;DHT22;19159;48.178;16.386;2024-02-14T10:17:03;35.60;38.40
32809;DHT22;19159;48.178;16.386;2024-02-14T10:19:29;36.30;37.60
32809;DHT22;19159;48.178;16.386;2024-02-14T10:21:58;36.70;36.80
32809;DHT22;19159;48.178;16.386;2024-02-14T10:24:28;36.70;36.60
32809;DHT22;19159;48.178;16.386;2024-02-14T10:26:54;36.90;35.90
32809;DHT22;19159;48.178;16.386;2024-02-14T10:29:22;37.70;35.80
32809;DHT22;19159;48.178;16.386;2024-02-14T10:31:48;38.40;35.50
32809;DHT22;19159;48.178;16.386;2024-02-14T10:34:14;39.00;34.90
32809;DHT22;19159;48.178;16.386;2024-02-14T10:36:42;39.50;33.60
32809;DHT22;19159;48.178;16.386;2024-02-14T10:39:10;39.60;33.20
32809;DHT22;19159;48.178;16.386;2024-02-14T10:41:36;40.30;33.20
32809;DHT22;19159;48.178;16.386;2024-02-14T10:44:03;40.10;31.40
32809;DHT22;19159;48.178;16.386;2024-02-14T10:46:32;40.20;32.00
32809;DHT22;19159;48.178;16.386;2024-02-14T10:49:02;41.00;32.10
32809;DHT22;19159;48.178;16.386;2024-02-14T10:51:31;41.00;30.20
32809;DHT22;19159;48.178;16.386;2024-02-14T10:53:58;40.50;30.70
32809;DHT22;19159;48.178;16.386;2024-02-14T10:56:28;41.00;31.60
32809;DHT22;19159;48.178;16.386;2024-02-14T10:58:57;41.30;31.00
32809;DHT22;19159;48.178;16.386;2024-02-14T11:01:27;42.10;30.70
32809;DHT22;19159;48.178;16.386;2024-02-14T11:03:57;42.40;30.60
32809;DHT22;19159;48.178;16.386;2024-02-14T11:06:23;42.90;29.90
32809;DHT22;19159;48.178;16.386;2024-02-14T11:09:01;43.20;29.50
32809;DHT22;19159;48.178;16.386;2024-02-14T11:11:32;42.60;29.10
32809;DHT22;19159;48.178;16.386;2024-02-14T11:13:58;41.40;29.00
32809;DHT22;19159;48.178;16.386;2024-02-14T11:16:25;41.00;30.00
32809;DHT22;19159;48.178;16.386;2024-02-14T11:18:54;40.80;29.40
32809;DHT22;19159;48.178;16.386;2024-02-14T11:21:30;41.80;29.80
32809;DHT22;19159;48.178;16.386;2024-02-14T11:23:56;42.20;29.20
32809;DHT22;19159;48.178;16.386;2024-02-14T11:26:24;41.80;29.30
32809;DHT22;19159;48.178;16.386;2024-02-14T11:28:49;43.00;29.50
32809;DHT22;19159;48.178;16.386;2024-02-14T11:31:34;43.80;29.00
32809;DHT22;19159;48.178;16.386;2024-02-14T11:34:04;43.30;28.90
32809;DHT22;19159;48.178;16.386;2024-02-14T11:36:32;41.60;29.00
32809;DHT22;19159;48.178;16.386;2024-02-14T11:38:58;39.70;29.70
32809;DHT22;19159;48.178;16.386;2024-02-14T11:41:27;37.80;30.10
32809;DHT22;19159;48.178;16.386;2024-02-14T11:43:53;37.00;31.40
32809;DHT22;19159;48.178;16.386;2024-02-14T11:46:19;38.60;31.60
32809;DHT22;19159;48.178;16.386;2024-02-14T11:48:44;39.90;31.10
32809;DHT22;19159;48.178;16.386;2024-02-14T11:51:11;40.70;30.30
32809;DHT22;19159;48.178;16.386;2024-02-14T11:53:37;41.50;30.60
32809;DHT22;19159;48.178;16.386;2024-02-14T11:56:05;42.10;30.10
32809;DHT22;19159;48.178;16.386;2024-02-14T11:58:31;41.90;29.70
32809;DHT22;19159;48.178;16.386;2024-02-14T12:00:57;40.70;29.50
32809;DHT22;19159;48.178;16.386;2024-02-14T12:03:23;39.60;30.00
32809;DHT22;19159;48.178;16.386;2024-02-14T12:05:53;39.80;30.30
32809;DHT22;19159;48.178;16.386;2024-02-14T12:08:19;40.40;29.70
32809;DHT22;19159;48.178;16.386;2024-02-14T12:10:46;40.50;29.80
32809;DHT22;19159;48.178;16.386;2024-02-14T12:13:14;40.80;29.80
32809;DHT22;19159;48.178;16.386;2024-02-14T12:15:47;40.60;29.60
32809;DHT22;19159;48.178;16.386;2024-02-14T12:18:12;40.20;29.60
32809;DHT22;19159;48.178;16.386;2024-02-14T12:20:41;39.80;30.10
32809;DHT22;19159;48.178;16.386;2024-02-14T12:23:17;39.50;30.40
32809;DHT22;19159;48.178;16.386;2024-02-14T12:25:43;38.30;30.60
32809;DHT22;19159;48.178;16.386;2024-02-14T12:28:16;37.80;31.60
32809;DHT22;19159;48.178;16.386;2024-02-14T12:30:51;38.30;31.70
32809;DHT22;19159;48.178;16.386;2024-02-14T12:33:22;38.20;31.10
32809;DHT22;19159;48.178;16.386;2024-02-14T12:35:50;37.10;30.90
32809;DHT22;19159;48.178;16.386;2024-02-14T12:38:17;35.10;31.20
32809;DHT22;19159;48.178;16.386;2024-02-14T12:40:43;33.10;32.00
32809;DHT22;19159;48.178;16.386;2024-02-14T12:43:13;31.40;33.10
32809;DHT22;19159;48.178;16.386;2024-02-14T12:45:40;30.00;33.90
32809;DHT22;19159;48.178;16.386;2024-02-14T12:48:07;28.70;34.30
32809;DHT22;19159;48.178;16.386;2024-02-14T12:50:34;27.50;35.10
32809;DHT22;19159;48.178;16.386;2024-02-14T12:53:01;26.50;36.10
32809;DHT22;19159;48.178;16.386;2024-02-14T12:55:27;25.70;37.10
32809;DHT22;19159;48.178;16.386;2024-02-14T12:57:55;24.60;38.10
32809;DHT22;19159;48.178;16.386;2024-02-14T13:00:21;23.60;39.70
32809;DHT22;19159;48.178;16.386;2024-02-14T13:02:48;23.10;40.60
32809;DHT22;19159;48.178;16.386;2024-02-14T13:05:14;22.60;41.40
32809;DHT22;19159;48.178;16.386;2024-02-14T13:07:43;22.20;42.40
32809;DHT22;19159;48.178;16.386;2024-02-14T13:10:09;21.70;43.30
32809;DHT22;19159;48.178;16.386;2024-02-14T13:12:36;21.10;44.30
32809;DHT22;19159;48.178;16.386;2024-02-14T13:15:03;20.90;44.80
32809;DHT22;19159;48.178;16.386;2024-02-14T13:17:29;20.60;45.70
32809;DHT22;19159;48.178;16.386;2024-02-14T13:19:55;20.30;46.40
32809;DHT22;19159;48.178;16.386;2024-02-14T13:22:21;20.10;46.90
32809;DHT22;19159;48.178;16.386;2024-02-14T13:24:46;19.60;47.80
32809;DHT22;19159;48.178;16.386;2024-02-14T13:27:12;19.00;48.70
32809;DHT22;19159;48.178;16.386;2024-02-14T13:29:39;18.80;49.40
32809;DHT22;19159;48.178;16.386;2024-02-14T13:32:05;18.60;50.00
32809;DHT22;19159;48.178;16.386;2024-02-14T13:34:33;18.40;50.60
32809;DHT22;19159;48.178;16.386;2024-02-14T13:36:59;18.10;51.20
32809;DHT22;19159;48.178;16.386;2024-02-14T13:39:25;18.00;50.90
32809;DHT22;19159;48.178;16.386;2024-02-14T13:41:50;17.90;51.40
32809;DHT22;19159;48.178;16.386;2024-02-14T13:44:17;18.00;51.40
32809;DHT22;19159;48.178;16.386;2024-02-14T13:46:44;17.70;51.70
32809;DHT22;19159;48.178;16.386;2024-02-14T13:49:11;17.60;51.90
32809;DHT22;19159;48.178;16.386;2024-02-14T13:51:38;17.50;52.50
32809;DHT22;19159;48.178;16.386;2024-02-14T13:54:05;17.30;52.90
32809;DHT22;19159;48.178;16.386;2024-02-14T13:56:32;17.00;53.50
32809;DHT22;19159;48.178;16.386;2024-02-14T13:58:57;16.90;53.90
32809;DHT22;19159;48.178;16.386;2024-02-14T14:01:24;16.90;54.20
32809;DHT22;19159;48.178;16.386;2024-02-14T14:03:52;16.80;54.50
32809;DHT22;19159;48.178;16.386;2024-02-14T14:06:20;16.80;54.50
32809;DHT22;19159;48.178;16.386;2024-02-14T14:08:46;16.70;54.80
32809;DHT22;19159;48.178;16.386;2024-02-14T14:11:12;16.30;55.30
32809;DHT22;19159;48.178;16.386;2024-02-14T14:13:37;16.30;55.60
32809;DHT22;19159;48.178;16.386;2024-02-14T14:16:03;16.10;55.80
32809;DHT22;19159;48.178;16.386;2024-02-14T14:18:30;16.20;55.80
32809;DHT22;19159;48.178;16.386;2024-02-14T14:20:57;16.00;55.80
32809;DHT22;19159;48.178;16.386;2024-02-14T14:23:22;15.90;56.20
32809;DHT22;19159;48.178;16.386;2024-02-14T14:25:48;16.00;56.10
32809;DHT22;19159;48.178;16.386;2024-02-14T14:28:14;16.00;56.10
32809;DHT22;19159;48.178;16.386;2024-02-14T14:30:40;15.90;56.40
32809;DHT22;19159;48.178;16.386;2024-02-14T14:33:06;15.90;56.40
32809;DHT22;19159;48.178;16.386;2024-02-14T14:35:33;16.00;56.30
32809;DHT22;19159;48.178;16.386;2024-02-14T14:37:59;16.00;56.20
32809;DHT22;19159;48.178;16.386;2024-02-14T14:40:25;15.90;56.50
32809;DHT22;19159;48.178;16.386;2024-02-14T14:42:52;16.00;56.70
32809;DHT22;19159;48.178;16.386;2024-02-14T14:45:18;15.70;57.00
32809;DHT22;19159;48.178;16.386;2024-02-14T14:47:44;15.70;57.30
32809;DHT22;19159;48.178;16.386;2024-02-14T14:50:10;15.70;57.20
32809;DHT22;19159;48.178;16.386;2024-02-14T14:52:36;15.80;57.30
32809;DHT22;19159;48.178;16.386;2024-02-14T14:55:04;15.80;57.20
32809;DHT22;19159;48.178;16.386;2024-02-14T14:57:30;15.80;57.10
32809;DHT22;19159;48.178;16.386;2024-02-14T14:59:55;15.80;57.10
32809;DHT22;19159;48.178;16.386;2024-02-14T15:02:21;15.80;57.30
32809;DHT22;19159;48.178;16.386;2024-02-14T15:04:47;15.80;57.30
32809;DHT22;19159;48.178;16.386;2024-02-14T15:07:13;15.80;57.20
32809;DHT22;19159;48.178;16.386;2024-02-14T15:09:39;15.70;57.60
32809;DHT22;19159;48.178;16.386;2024-02-14T15:12:05;15.70;57.50
32809;DHT22;19159;48.178;16.386;2024-02-14T15:14:32;15.70;57.40
32809;DHT22;19159;48.178;16.386;2024-02-14T15:16:58;15.80;57.30
32809;DHT22;19159;48.178;16.386;2024-02-14T15:19:24;15.80;57.30